Airfield :
LOGIN :

Register | Disclaimer

   EN    FR    IT 

 










Legend :    VFR   Marginal VFR   IFR   Intensive IFR   Very Intensive IFR
Visi :
Ceiling :
>= 8 km
>= 3000ft
5 to 8 km
1000 to 3000 ft
1500m to 5 km
500 to 1000 ft
800 to 1500m
200 to 500 ft
< 800m
< 200 ft
Symbols :   Thunderstorms  Fog  Heavy snow  Heavy precipitations  Wind > 20 kt
SIGMETs :     Misc.  Thunderstorms  Icing  Turbulence  Mountain Waves  Volcanic Ashes






- Airport Elevation : 1046 ft
- IATA code : NUE


EDDN - Nuremberg

CURRENT METAR :
  • 011320Z VRB03KT 9999 SCT027 20/13 Q1010 NOSIG

EXPIRED METARs :
  • 011250Z 25003KT 190V330 9999 FEW022 19/13 Q1010 NOSIG
  • 011220Z 25005KT 190V290 9999 FEW016 18/14 Q1010 NOSIG
  • 011150Z 26007KT 230V290 9999 SCT017 18/14 Q1010 NOSIG
  • 011120Z 29003KT 250V310 9999 FEW021 17/14 Q1010 NOSIG

TAF TAF EDDN
Valid from the 01 at 12:00 until the 02 at 12:00 UTC


011100Z 0112/0212 24005KT 9999 SCT020
TEMPO 0112/0124 SHRA BKN035CB
PROB30
TEMPO 0112/0116 27015G25KT 4000 TSRA
PROB30
TEMPO 0205/0208 BKN010
PROB40
TEMPO 0211/0212 SHRA SCT012 BKN035CB



MET'MAP, your aeronautical weather chart ! - Copyright ORBIFLY December 2007 - Disclaimer

ORBIFLY MET'MAP TEAM :

Programming & Development : Alexandra Zaïnal
Concept & original design : Baudouin d'Aumeries
Assistance for programming : Marc-Olivier Méhu
Technical & hardware support : Manuel Goepfert

Contact : metmap@orbifly.com




SOURCES & CREDITS :

   NOAA